createdAt,value
2016-12-11T00:00:08.173Z,23.94
2016-12-11T00:00:36.317Z,24
2016-12-11T00:01:04.468Z,23.88
2016-12-11T00:01:32.622Z,23.96
2016-12-11T00:02:00.779Z,23.95
2016-12-11T00:02:29.066Z,23.94
2016-12-11T00:02:57.231Z,23.94
2016-12-11T00:03:25.418Z,23.99
2016-12-11T00:03:53.580Z,23.92
2016-12-11T00:04:21.740Z,23.96
2016-12-11T00:04:49.913Z,23.94
2016-12-11T00:05:18.070Z,23.99
2016-12-11T00:05:46.224Z,23.95
2016-12-11T00:06:14.382Z,23.99
2016-12-11T00:06:42.546Z,23.95
2016-12-11T00:07:10.708Z,23.95
2016-12-11T00:07:38.834Z,23.96
2016-12-11T00:08:06.992Z,23.95
2016-12-11T00:08:35.282Z,23.92
2016-12-11T00:09:03.446Z,23.96
2016-12-11T00:09:31.609Z,23.91
2016-12-11T00:09:59.777Z,23.85
2016-12-11T00:10:27.948Z,23.82
2016-12-11T00:10:56.103Z,23.86
2016-12-11T00:11:24.267Z,23.89
2016-12-11T00:11:52.458Z,23.86
2016-12-11T00:12:20.616Z,23.89
2016-12-11T00:12:48.773Z,23.85
2016-12-11T00:13:16.912Z,23.77
2016-12-11T00:13:45.133Z,23.81
2016-12-11T00:14:13.314Z,23.74
2016-12-11T00:14:41.598Z,23.73
2016-12-11T00:15:09.769Z,23.74
2016-12-11T00:15:37.925Z,23.77
2016-12-11T00:16:06.090Z,23.81
2016-12-11T00:16:34.255Z,23.74
2016-12-11T00:17:02.587Z,23.84
2016-12-11T00:17:30.838Z,23.84
2016-12-11T00:17:59.006Z,23.82
2016-12-11T00:18:27.208Z,23.73
2016-12-11T00:18:55.361Z,23.84
2016-12-11T00:19:23.505Z,23.88
2016-12-11T00:19:51.691Z,23.79
2016-12-11T00:20:19.931Z,23.85
2016-12-11T00:20:48.099Z,23.77
2016-12-11T00:21:16.285Z,23.84
2016-12-11T00:21:44.452Z,23.88
2016-12-11T00:22:12.623Z,23.86
2016-12-11T00:22:40.762Z,23.84
2016-12-11T00:23:08.919Z,23.88
2016-12-11T00:23:37.073Z,23.84
2016-12-11T00:24:05.204Z,23.84
2016-12-11T00:24:33.507Z,23.86
2016-12-11T00:25:01.643Z,23.86
2016-12-11T00:25:29.797Z,23.86
2016-12-11T00:25:57.974Z,23.85
2016-12-11T00:26:26.140Z,23.91
2016-12-11T00:26:54.288Z,23.85
2016-12-11T00:27:22.471Z,23.82
2016-12-11T00:27:50.640Z,23.85
2016-12-11T00:28:18.820Z,23.88
2016-12-11T00:28:46.999Z,23.86
2016-12-11T00:29:15.189Z,23.81
2016-12-11T00:29:43.364Z,23.79
2016-12-11T00:30:11.524Z,23.85
2016-12-11T00:30:39.723Z,23.84
2016-12-11T00:31:07.901Z,23.82
2016-12-11T00:31:36.037Z,23.86
2016-12-11T00:32:04.258Z,23.82
2016-12-11T00:32:32.483Z,23.88
2016-12-11T00:33:00.653Z,23.89
2016-12-11T00:33:28.923Z,23.84
2016-12-11T00:33:57.070Z,23.88
2016-12-11T00:34:25.245Z,23.86
2016-12-11T00:34:53.412Z,23.89
2016-12-11T00:35:21.608Z,23.95
2016-12-11T00:35:49.793Z,24
2016-12-11T00:36:17.965Z,23.88
2016-12-11T00:36:46.157Z,23.94
2016-12-11T00:37:14.314Z,23.89
2016-12-11T00:37:42.468Z,23.96
2016-12-11T00:38:10.634Z,24
2016-12-11T00:38:38.771Z,23.91
2016-12-11T00:39:06.947Z,23.94
2016-12-11T00:39:35.106Z,23.91
2016-12-11T00:40:03.289Z,24
2016-12-11T00:40:31.450Z,23.91
2016-12-11T00:40:59.799Z,23.92
2016-12-11T00:41:27.969Z,23.95
2016-12-11T00:41:56.121Z,24
2016-12-11T00:42:24.270Z,24.09
2016-12-11T00:42:52.451Z,24.03
2016-12-11T00:43:20.647Z,24.03
2016-12-11T00:43:48.897Z,24.09
2016-12-11T00:44:17.041Z,24.1
2016-12-11T00:44:45.213Z,24.01
2016-12-11T00:45:13.362Z,24.18
2016-12-11T00:45:41.535Z,24.19
2016-12-11T00:46:09.717Z,24.21
2016-12-11T00:46:37.902Z,24.1
2016-12-11T00:47:06.139Z,24.19
2016-12-11T00:47:34.325Z,24.14
2016-12-11T00:48:02.492Z,24.18
2016-12-11T00:48:30.628Z,24.11
2016-12-11T00:48:58.811Z,24.21
2016-12-11T00:49:27.001Z,24.19
2016-12-11T00:49:55.172Z,24.11
2016-12-11T00:50:23.338Z,24.13
2016-12-11T00:50:51.514Z,24.09
2016-12-11T00:51:19.679Z,24.11
2016-12-11T00:51:47.844Z,24.06
2016-12-11T00:52:15.987Z,24.19
2016-12-11T00:52:44.152Z,24.07
2016-12-11T00:53:12.333Z,24.1
2016-12-11T00:53:40.473Z,24.06
2016-12-11T00:54:08.634Z,24.04
2016-12-11T00:54:36.780Z,24.04
2016-12-11T00:55:04.930Z,24.09
2016-12-11T00:55:33.080Z,24
2016-12-11T00:56:01.264Z,24.01
2016-12-11T00:56:29.450Z,24.06
2016-12-11T00:56:57.593Z,24.09
2016-12-11T00:57:25.752Z,23.99
2016-12-11T00:57:53.885Z,23.94
2016-12-11T00:58:22.028Z,23.94
2016-12-11T00:58:50.170Z,23.95
2016-12-11T00:59:18.413Z,23.95
2016-12-11T00:59:46.595Z,23.91
2016-12-11T01:00:14.814Z,23.95
2016-12-11T01:00:42.949Z,23.91
2016-12-11T01:01:11.199Z,23.89
2016-12-11T01:01:39.362Z,23.86
2016-12-11T01:02:07.518Z,23.94
2016-12-11T01:02:35.661Z,23.92
2016-12-11T01:03:03.825Z,23.95
2016-12-11T01:03:32.001Z,23.91
2016-12-11T01:04:00.210Z,23.96
2016-12-11T01:04:28.456Z,23.89
2016-12-11T01:04:56.673Z,23.95
2016-12-11T01:05:24.853Z,23.89
2016-12-11T01:05:53.006Z,23.92
2016-12-11T01:06:21.151Z,23.92
2016-12-11T01:06:49.338Z,23.99
2016-12-11T01:07:17.502Z,24.07
2016-12-11T01:07:45.663Z,24.07
2016-12-11T01:08:13.796Z,24.04
2016-12-11T01:08:42.051Z,23.96
2016-12-11T01:09:10.198Z,23.95
2016-12-11T01:09:38.387Z,23.95
2016-12-11T01:10:06.570Z,23.95
2016-12-11T01:10:34.753Z,23.94
2016-12-11T01:11:02.939Z,23.92
2016-12-11T01:11:31.061Z,23.91
2016-12-11T01:11:59.211Z,23.89
2016-12-11T01:12:27.383Z,23.91
2016-12-11T01:12:55.524Z,23.96
2016-12-11T01:13:23.693Z,23.92
2016-12-11T01:13:51.883Z,23.99
2016-12-11T01:14:20.019Z,23.86
2016-12-11T01:14:48.156Z,23.92
2016-12-11T01:15:16.326Z,23.89
2016-12-11T01:15:44.533Z,23.79
2016-12-11T01:16:12.784Z,23.91
2016-12-11T01:16:40.947Z,23.82
2016-12-11T01:17:09.145Z,23.84
2016-12-11T01:17:37.292Z,23.79
2016-12-11T01:18:05.465Z,23.89
2016-12-11T01:18:33.606Z,23.89
2016-12-11T01:19:01.756Z,23.84
2016-12-11T01:19:30.039Z,23.84
2016-12-11T01:19:58.221Z,23.86
2016-12-11T01:20:26.426Z,23.86
2016-12-11T01:20:54.563Z,23.85
2016-12-11T01:21:22.725Z,23.85
2016-12-11T01:21:50.870Z,23.84
2016-12-11T01:22:19.162Z,23.84
2016-12-11T01:22:47.420Z,23.89
2016-12-11T01:23:15.588Z,23.95
2016-12-11T01:23:43.783Z,23.92
2016-12-11T01:24:11.949Z,24
2016-12-11T01:24:40.105Z,23.89
2016-12-11T01:25:08.282Z,23.89
2016-12-11T01:25:36.455Z,23.92
2016-12-11T01:26:04.605Z,23.99
2016-12-11T01:26:32.757Z,24.01
2016-12-11T01:27:00.964Z,23.95
2016-12-11T01:27:29.186Z,23.99
2016-12-11T01:27:57.374Z,23.95
2016-12-11T01:28:25.548Z,24.06
2016-12-11T01:28:53.723Z,24.04
2016-12-11T01:29:21.852Z,24
2016-12-11T01:29:50.108Z,24.09
2016-12-11T01:30:18.459Z,24.06
2016-12-11T01:30:46.615Z,24.06
2016-12-11T01:31:14.774Z,24.04
2016-12-11T01:31:42.942Z,24.06
2016-12-11T01:32:11.200Z,24.04
2016-12-11T01:32:39.372Z,24.06
2016-12-11T01:33:07.526Z,23.95
2016-12-11T01:33:35.683Z,23.99
2016-12-11T01:34:03.825Z,23.95
2016-12-11T01:34:32.013Z,23.89
2016-12-11T01:35:00.162Z,23.88
2016-12-11T01:35:28.347Z,23.95
2016-12-11T01:35:56.562Z,23.91
2016-12-11T01:36:24.753Z,23.79
2016-12-11T01:36:52.911Z,23.82
2016-12-11T01:37:21.071Z,23.84
2016-12-11T01:37:49.304Z,23.81
2016-12-11T01:38:17.451Z,23.85
2016-12-11T01:38:45.801Z,23.73
2016-12-11T01:39:13.969Z,23.79
2016-12-11T01:39:42.132Z,23.74
2016-12-11T01:40:10.324Z,23.79
2016-12-11T01:40:38.475Z,23.71
2016-12-11T01:41:06.667Z,23.71
2016-12-11T01:41:34.895Z,23.74
2016-12-11T01:42:03.050Z,23.7
2016-12-11T01:42:31.210Z,23.77
2016-12-11T01:42:59.367Z,23.76
2016-12-11T01:43:27.567Z,23.76
2016-12-11T01:43:55.752Z,23.74
2016-12-11T01:44:23.910Z,23.7
2016-12-11T01:44:52.062Z,23.76
2016-12-11T01:45:20.253Z,23.77
2016-12-11T01:45:48.403Z,23.74
2016-12-11T01:46:16.622Z,23.79
2016-12-11T01:46:44.791Z,23.76
2016-12-11T01:47:12.968Z,23.84
2016-12-11T01:47:41.127Z,23.76
2016-12-11T01:48:09.295Z,23.73
2016-12-11T01:48:37.453Z,23.73
2016-12-11T01:49:05.610Z,23.81
2016-12-11T01:49:33.743Z,23.81
2016-12-11T01:50:01.905Z,23.84
2016-12-11T01:50:30.092Z,23.73
2016-12-11T01:50:58.271Z,23.82
2016-12-11T01:51:26.492Z,23.81
2016-12-11T01:51:54.655Z,23.73
2016-12-11T01:52:22.823Z,23.76
2016-12-11T01:52:51.006Z,23.77
2016-12-11T01:53:19.185Z,23.81
2016-12-11T01:53:47.333Z,23.85
2016-12-11T01:54:15.478Z,23.81
2016-12-11T01:54:43.716Z,23.84
2016-12-11T01:55:11.883Z,23.85
2016-12-11T01:55:40.049Z,23.86
2016-12-11T01:56:08.222Z,23.88
2016-12-11T01:56:36.381Z,23.85
2016-12-11T01:57:04.546Z,23.94
2016-12-11T01:57:32.719Z,23.92
2016-12-11T01:58:00.863Z,23.85
2016-12-11T01:58:29.205Z,23.91
2016-12-11T01:58:57.361Z,23.96
2016-12-11T01:59:25.577Z,23.94
2016-12-11T01:59:53.759Z,23.95
2016-12-11T02:00:21.975Z,23.94
2016-12-11T02:00:50.204Z,23.89
2016-12-11T02:01:18.532Z,23.94
2016-12-11T02:01:46.708Z,23.91
2016-12-11T02:02:14.942Z,23.94
2016-12-11T02:02:43.073Z,23.94
2016-12-11T02:03:11.209Z,23.92
2016-12-11T02:03:39.361Z,23.91
2016-12-11T02:04:07.501Z,23.94
2016-12-11T02:04:35.657Z,23.88
2016-12-11T02:05:03.837Z,23.88
2016-12-11T02:05:32.012Z,23.89
2016-12-11T02:06:00.198Z,23.95
2016-12-11T02:06:28.391Z,23.95
2016-12-11T02:06:56.543Z,23.96
2016-12-11T02:07:24.689Z,23.91
2016-12-11T02:07:52.868Z,23.89
2016-12-11T02:08:21.030Z,23.88
2016-12-11T02:08:49.175Z,23.95
2016-12-11T02:09:17.344Z,23.85
2016-12-11T02:09:45.518Z,23.81
2016-12-11T02:10:13.687Z,23.88
2016-12-11T02:10:41.826Z,23.82
2016-12-11T02:11:10.109Z,23.77
2016-12-11T02:11:38.267Z,23.74
2016-12-11T02:12:06.504Z,23.77
2016-12-11T02:12:34.654Z,23.82
2016-12-11T02:13:02.795Z,23.82
2016-12-11T02:13:30.973Z,23.73
2016-12-11T02:13:59.114Z,23.79
2016-12-11T02:14:27.256Z,23.76
2016-12-11T02:14:55.414Z,23.69
2016-12-11T02:15:23.760Z,23.71
2016-12-11T02:15:51.943Z,23.73
2016-12-11T02:16:20.095Z,23.73
2016-12-11T02:16:48.268Z,23.74
2016-12-11T02:17:16.430Z,23.82
2016-12-11T02:17:44.620Z,23.81
2016-12-11T02:18:12.876Z,23.79
2016-12-11T02:18:41.069Z,23.76
2016-12-11T02:19:09.227Z,23.73
2016-12-11T02:19:37.431Z,23.84
2016-12-11T02:20:05.600Z,23.77
2016-12-11T02:20:33.783Z,23.82
2016-12-11T02:21:01.926Z,23.84
2016-12-11T02:21:30.180Z,23.94
2016-12-11T02:21:58.319Z,23.81
2016-12-11T02:22:26.507Z,23.85
2016-12-11T02:22:54.666Z,23.81
2016-12-11T02:23:22.850Z,23.85
2016-12-11T02:23:51.028Z,23.81
2016-12-11T02:24:19.198Z,23.77
2016-12-11T02:24:47.361Z,23.79
2016-12-11T02:25:15.496Z,23.84
2016-12-11T02:25:43.643Z,23.85
2016-12-11T02:26:11.808Z,23.92
2016-12-11T02:26:40.077Z,23.86
2016-12-11T02:27:08.253Z,23.77
2016-12-11T02:27:36.491Z,23.74
2016-12-11T02:28:04.634Z,23.81
2016-12-11T02:28:32.797Z,23.81
2016-12-11T02:29:00.964Z,23.73
2016-12-11T02:29:29.127Z,23.73
2016-12-11T02:29:57.431Z,23.84
2016-12-11T02:30:25.571Z,23.84
2016-12-11T02:30:53.740Z,23.76
2016-12-11T02:31:21.917Z,23.76
2016-12-11T02:31:50.070Z,23.82
2016-12-11T02:32:18.228Z,23.77
2016-12-11T02:32:46.388Z,23.85
2016-12-11T02:33:14.536Z,23.76
2016-12-11T02:33:42.687Z,23.85
2016-12-11T02:34:10.846Z,23.76
2016-12-11T02:34:39.001Z,23.85
2016-12-11T02:35:07.180Z,23.81
2016-12-11T02:35:35.333Z,23.76
2016-12-11T02:36:03.499Z,23.77
2016-12-11T02:36:31.742Z,23.82
2016-12-11T02:36:59.875Z,23.76
2016-12-11T02:37:28.060Z,23.74
2016-12-11T02:37:56.242Z,23.82
2016-12-11T02:38:24.396Z,23.7
2016-12-11T02:38:52.549Z,23.76
2016-12-11T02:39:20.697Z,23.77
2016-12-11T02:39:48.960Z,23.76
2016-12-11T02:40:17.155Z,23.7
2016-12-11T02:40:45.306Z,23.74
2016-12-11T02:41:13.476Z,23.74
2016-12-11T02:41:41.657Z,23.73
2016-12-11T02:42:09.818Z,23.71
2016-12-11T02:42:37.942Z,23.73
2016-12-11T02:43:06.203Z,23.74
2016-12-11T02:43:34.363Z,23.73
2016-12-11T02:44:02.518Z,23.74
2016-12-11T02:44:30.702Z,23.73
2016-12-11T02:44:58.931Z,23.74
2016-12-11T02:45:27.095Z,23.76
2016-12-11T02:45:55.236Z,23.7
2016-12-11T02:46:23.397Z,23.74
2016-12-11T02:46:51.553Z,23.79
2016-12-11T02:47:19.777Z,23.74
2016-12-11T02:47:47.942Z,23.79
2016-12-11T02:48:16.120Z,23.81
2016-12-11T02:48:44.361Z,23.84
2016-12-11T02:49:12.632Z,23.76
2016-12-11T02:49:40.793Z,23.74
2016-12-11T02:50:08.974Z,23.79
2016-12-11T02:50:37.130Z,23.81
2016-12-11T02:51:05.296Z,23.79
2016-12-11T02:51:33.468Z,23.85
2016-12-11T02:52:01.626Z,23.79
2016-12-11T02:52:29.788Z,23.81
2016-12-11T02:52:57.963Z,23.85
2016-12-11T02:53:26.117Z,23.84
2016-12-11T02:53:54.276Z,23.85
2016-12-11T02:54:22.520Z,23.81
2016-12-11T02:54:50.675Z,23.86
2016-12-11T02:55:18.834Z,23.95
2016-12-11T02:55:47.004Z,23.85
2016-12-11T02:56:15.170Z,23.89
2016-12-11T02:56:43.419Z,23.91
2016-12-11T02:57:11.682Z,23.89
2016-12-11T02:57:39.871Z,23.88
2016-12-11T02:58:08.032Z,23.85
2016-12-11T02:58:36.210Z,23.86
2016-12-11T02:59:04.358Z,23.89
2016-12-11T02:59:32.526Z,23.84
2016-12-11T03:00:00.688Z,23.89
2016-12-11T03:00:28.847Z,23.85
2016-12-11T03:00:57.114Z,23.91
2016-12-11T03:01:25.329Z,23.85
2016-12-11T03:01:53.510Z,23.95
2016-12-11T03:02:21.669Z,23.92
2016-12-11T03:02:49.834Z,23.92
2016-12-11T03:03:18.024Z,23.91
2016-12-11T03:03:46.294Z,23.94
2016-12-11T03:04:14.618Z,23.95
2016-12-11T03:04:42.792Z,23.95
2016-12-11T03:05:10.962Z,23.95
2016-12-11T03:05:39.095Z,23.94
2016-12-11T03:06:07.275Z,23.96
2016-12-11T03:06:35.436Z,23.99
2016-12-11T03:07:03.613Z,23.94
2016-12-11T03:07:31.839Z,23.96
2016-12-11T03:07:59.994Z,24.03
2016-12-11T03:08:28.169Z,24
2016-12-11T03:08:56.409Z,24.03
2016-12-11T03:09:24.549Z,23.96
2016-12-11T03:09:52.701Z,24.04
2016-12-11T03:10:20.843Z,24.03
2016-12-11T03:10:48.980Z,24.06
2016-12-11T03:11:17.256Z,24.06
2016-12-11T03:11:45.420Z,24.01
2016-12-11T03:12:13.590Z,24.09
2016-12-11T03:12:41.738Z,24.13
2016-12-11T03:13:09.916Z,24.07
2016-12-11T03:13:38.073Z,24.19
2016-12-11T03:14:06.272Z,24.16
2016-12-11T03:14:34.548Z,24.13
2016-12-11T03:15:02.799Z,24.16
2016-12-11T03:15:30.998Z,24.21
2016-12-11T03:15:59.168Z,24.21
2016-12-11T03:16:27.327Z,24.07
2016-12-11T03:16:55.518Z,24.14
2016-12-11T03:17:23.673Z,24.24
2016-12-11T03:17:51.837Z,24.25
2016-12-11T03:18:20.031Z,24.24
2016-12-11T03:18:48.300Z,24.19
2016-12-11T03:19:16.476Z,24.18
2016-12-11T03:19:44.622Z,24.21
2016-12-11T03:20:12.767Z,24.22
2016-12-11T03:20:40.956Z,24.26
2016-12-11T03:21:09.216Z,24.24
2016-12-11T03:21:37.335Z,24.28
2016-12-11T03:22:05.467Z,24.25
2016-12-11T03:22:33.635Z,24.19
2016-12-11T03:23:01.815Z,24.24
2016-12-11T03:23:29.984Z,24.24
2016-12-11T03:23:58.139Z,24.25
2016-12-11T03:24:26.298Z,24.31
2016-12-11T03:24:54.448Z,24.31
2016-12-11T03:25:22.613Z,24.26
2016-12-11T03:25:50.785Z,24.26
2016-12-11T03:26:18.964Z,24.22
2016-12-11T03:26:47.134Z,24.29
2016-12-11T03:27:15.288Z,24.25
2016-12-11T03:27:43.475Z,24.18
2016-12-11T03:28:11.728Z,24.22
2016-12-11T03:28:39.881Z,24.22
2016-12-11T03:29:08.046Z,24.19
2016-12-11T03:29:36.225Z,24.22
2016-12-11T03:30:04.455Z,24.24
2016-12-11T03:30:32.599Z,24.31
2016-12-11T03:31:00.744Z,24.32
2016-12-11T03:31:28.970Z,24.26
2016-12-11T03:31:57.123Z,24.31
2016-12-11T03:32:25.299Z,24.29
2016-12-11T03:32:53.449Z,24.34
2016-12-11T03:33:21.597Z,24.31
2016-12-11T03:33:49.768Z,24.32
2016-12-11T03:34:17.955Z,24.31
2016-12-11T03:34:46.107Z,24.32
2016-12-11T03:35:14.277Z,24.29
2016-12-11T03:35:42.460Z,24.32
2016-12-11T03:36:10.638Z,24.29
2016-12-11T03:36:38.784Z,24.31
2016-12-11T03:37:06.942Z,24.29
2016-12-11T03:37:35.279Z,24.34
2016-12-11T03:38:03.550Z,24.29
2016-12-11T03:38:31.687Z,24.29
2016-12-11T03:38:59.835Z,24.34
2016-12-11T03:39:28.011Z,24.36
2016-12-11T03:39:56.151Z,24.31
2016-12-11T03:40:24.308Z,24.31
2016-12-11T03:40:52.451Z,24.34
2016-12-11T03:41:21.196Z,24.29
2016-12-11T03:41:49.606Z,24.28
2016-12-11T03:42:17.853Z,24.29
2016-12-11T03:42:46.107Z,24.34
2016-12-11T03:43:14.271Z,24.31
2016-12-11T03:43:42.444Z,24.29
2016-12-11T03:44:10.630Z,24.34
2016-12-11T03:44:38.836Z,24.29
2016-12-11T03:45:07.250Z,24.31
2016-12-11T03:45:35.402Z,24.32
2016-12-11T03:46:09.257Z,24.38
2016-12-11T03:46:38.420Z,24.29
2016-12-11T03:47:06.651Z,24.37
2016-12-11T03:47:34.782Z,24.32
2016-12-11T03:48:02.945Z,24.31
2016-12-11T03:48:31.224Z,24.36
2016-12-11T03:48:59.398Z,24.29
2016-12-11T03:49:27.676Z,24.4
2016-12-11T03:49:55.845Z,24.37
2016-12-11T03:50:24.021Z,24.4
2016-12-11T03:50:52.208Z,24.32
2016-12-11T03:51:20.385Z,24.38
2016-12-11T03:51:48.561Z,24.34
2016-12-11T03:52:16.720Z,24.32
2016-12-11T03:52:44.907Z,24.31
2016-12-11T03:53:13.057Z,24.36
2016-12-11T03:53:41.221Z,24.28
2016-12-11T03:54:09.386Z,24.29
2016-12-11T03:54:37.540Z,24.32
2016-12-11T03:55:05.696Z,24.29
2016-12-11T03:55:33.852Z,24.29
2016-12-11T03:56:02.037Z,24.25
2016-12-11T03:56:30.197Z,24.31
2016-12-11T03:56:58.369Z,24.26
2016-12-11T03:57:26.612Z,24.28
2016-12-11T03:57:54.779Z,24.28
2016-12-11T03:58:23.032Z,24.22
2016-12-11T03:58:51.167Z,24.31
2016-12-11T03:59:19.408Z,24.28
2016-12-11T03:59:47.585Z,24.24
2016-12-11T04:00:15.753Z,24.32
2016-12-11T04:00:43.897Z,24.26
2016-12-11T04:01:12.095Z,24.22
2016-12-11T04:01:40.303Z,24.26
2016-12-11T04:02:08.441Z,24.24
2016-12-11T04:02:36.632Z,24.22
2016-12-11T04:03:04.774Z,24.21
2016-12-11T04:03:32.937Z,24.25
2016-12-11T04:04:01.182Z,24.28
2016-12-11T04:04:29.370Z,24.29
2016-12-11T04:04:57.564Z,24.36
2016-12-11T04:05:25.708Z,24.31
2016-12-11T04:05:53.881Z,24.38
2016-12-11T04:06:22.041Z,24.36
2016-12-11T04:06:50.223Z,24.37
2016-12-11T04:07:18.472Z,24.38
2016-12-11T04:07:46.674Z,24.32
2016-12-11T04:08:14.861Z,24.32
2016-12-11T04:08:42.998Z,24.36
2016-12-11T04:09:11.133Z,24.36
2016-12-11T04:09:39.279Z,24.32
2016-12-11T04:10:07.421Z,24.28
2016-12-11T04:10:35.604Z,24.29
2016-12-11T04:11:03.771Z,24.28
2016-12-11T04:11:32.055Z,24.28
2016-12-11T04:12:00.220Z,24.31
2016-12-11T04:12:28.388Z,24.32
2016-12-11T04:12:56.592Z,24.32
2016-12-11T04:13:24.922Z,24.29
2016-12-11T04:13:53.135Z,24.32
2016-12-11T04:14:21.338Z,24.37
2016-12-11T04:14:49.506Z,24.29
2016-12-11T04:15:17.672Z,24.32
2016-12-11T04:15:45.849Z,24.34
2016-12-11T04:16:14.057Z,24.26
2016-12-11T04:16:42.218Z,24.26
2016-12-11T04:17:10.375Z,24.32
2016-12-11T04:17:38.518Z,24.32
2016-12-11T04:18:06.696Z,24.25
2016-12-11T04:18:34.906Z,24.31
2016-12-11T04:19:03.059Z,24.25
2016-12-11T04:19:31.296Z,24.26
2016-12-11T04:19:59.478Z,24.25
2016-12-11T04:20:27.669Z,24.32
2016-12-11T04:20:55.833Z,24.28
2016-12-11T04:21:23.984Z,24.26
2016-12-11T04:21:52.166Z,24.29
2016-12-11T04:22:20.330Z,24.31
2016-12-11T04:22:48.513Z,24.32
2016-12-11T04:23:16.666Z,24.36
2016-12-11T04:23:44.856Z,24.34
2016-12-11T04:24:13.012Z,24.29
2016-12-11T04:24:45.618Z,24.26
2016-12-11T04:25:13.892Z,24.26
2016-12-11T04:25:42.055Z,24.32
2016-12-11T04:26:10.224Z,24.26
2016-12-11T04:26:38.400Z,24.26
2016-12-11T04:27:06.585Z,24.18
2016-12-11T04:27:34.888Z,24.25
2016-12-11T04:28:03.144Z,24.24
2016-12-11T04:28:31.300Z,24.24
2016-12-11T04:28:59.456Z,24.26
2016-12-11T04:29:27.598Z,24.16
2016-12-11T04:29:55.973Z,24.21
2016-12-11T04:30:24.127Z,24.22
2016-12-11T04:30:52.375Z,24.19
2016-12-11T04:31:20.540Z,24.19
2016-12-11T04:31:48.685Z,24.29
2016-12-11T04:32:16.842Z,24.16
2016-12-11T04:32:44.993Z,24.18
2016-12-11T04:33:13.133Z,24.19
2016-12-11T04:33:41.291Z,24.22
2016-12-11T04:34:09.434Z,24.22
2016-12-11T04:34:37.570Z,24.16
2016-12-11T04:35:05.721Z,24.16
2016-12-11T04:35:33.858Z,24.21
2016-12-11T04:36:02.032Z,24.18
2016-12-11T04:36:30.208Z,24.19
2016-12-11T04:36:58.371Z,24.13
2016-12-11T04:37:26.539Z,24.19
2016-12-11T04:37:54.706Z,24.16
2016-12-11T04:38:22.846Z,24.13
2016-12-11T04:38:51.010Z,24.14
2016-12-11T04:39:19.163Z,24.06
2016-12-11T04:39:47.332Z,24.21
2016-12-11T04:40:15.531Z,24.19
2016-12-11T04:40:43.881Z,24.09
2016-12-11T04:41:12.408Z,24.09
2016-12-11T04:41:40.569Z,24.16
2016-12-11T04:42:08.748Z,24.19
2016-12-11T04:42:36.909Z,24.16
2016-12-11T04:43:05.111Z,24.13
2016-12-11T04:43:33.347Z,24.13
2016-12-11T04:44:01.520Z,24.14
2016-12-11T04:44:29.674Z,24.18
2016-12-11T04:44:57.843Z,24.09
2016-12-11T04:45:25.981Z,24.14
2016-12-11T04:45:54.253Z,24.19
2016-12-11T04:46:22.411Z,24.13
2016-12-11T04:46:50.559Z,24.1
2016-12-11T04:47:18.700Z,24.1
2016-12-11T04:47:46.840Z,24.07
2016-12-11T04:48:14.976Z,24.09
2016-12-11T04:48:43.134Z,24.06
2016-12-11T04:49:11.291Z,24.04
2016-12-11T04:49:39.463Z,24.03
2016-12-11T04:50:09.212Z,24.04
2016-12-11T04:50:37.659Z,24.06
2016-12-11T04:51:05.915Z,24.04
2016-12-11T04:51:34.079Z,24.06
2016-12-11T04:52:02.306Z,24.06
2016-12-11T04:52:30.457Z,24.04
2016-12-11T04:52:58.616Z,24.03
2016-12-11T04:53:26.754Z,23.99
2016-12-11T04:53:54.910Z,23.96
2016-12-11T04:54:23.115Z,24.06
2016-12-11T04:54:51.311Z,24.01
2016-12-11T04:55:19.494Z,23.94
2016-12-11T04:55:47.655Z,23.92
2016-12-11T04:56:15.844Z,24.01
2016-12-11T04:56:44.024Z,23.91
2016-12-11T04:57:12.185Z,24
2016-12-11T04:57:40.472Z,23.99
2016-12-11T04:58:08.597Z,23.99
2016-12-11T04:58:36.826Z,23.95
2016-12-11T04:59:05.071Z,23.92
2016-12-11T04:59:33.233Z,24
2016-12-11T05:00:01.399Z,23.91
2016-12-11T05:00:29.554Z,23.99
2016-12-11T05:00:57.711Z,23.94
2016-12-11T05:01:25.907Z,23.99
2016-12-11T05:01:54.072Z,24
2016-12-11T05:02:22.299Z,23.99
2016-12-11T05:02:50.435Z,23.96
2016-12-11T05:03:18.579Z,24.01
2016-12-11T05:03:46.737Z,24.09
2016-12-11T05:04:14.909Z,24.04
2016-12-11T05:04:43.077Z,24.03
2016-12-11T05:05:11.314Z,24
2016-12-11T05:05:39.452Z,24.07
2016-12-11T05:06:07.612Z,24
2016-12-11T05:06:35.756Z,23.95
2016-12-11T05:07:03.882Z,24
2016-12-11T05:07:32.037Z,23.95
2016-12-11T05:08:00.193Z,23.99
2016-12-11T05:08:28.352Z,23.95
2016-12-11T05:08:56.612Z,23.89
2016-12-11T05:09:24.777Z,23.91
2016-12-11T05:09:52.947Z,23.94
2016-12-11T05:10:21.118Z,23.89
2016-12-11T05:10:49.308Z,23.85
2016-12-11T05:11:17.523Z,23.92
2016-12-11T05:11:45.686Z,23.92
2016-12-11T05:12:13.851Z,23.92
2016-12-11T05:12:42.027Z,23.86
2016-12-11T05:13:10.190Z,23.82
2016-12-11T05:13:38.385Z,23.88
2016-12-11T05:14:06.564Z,23.79
2016-12-11T05:14:34.739Z,23.89
2016-12-11T05:15:02.936Z,23.81
2016-12-11T05:15:31.117Z,23.79
2016-12-11T05:15:59.284Z,23.82
2016-12-11T05:16:27.452Z,23.86
2016-12-11T05:16:55.620Z,23.86
2016-12-11T05:17:23.801Z,23.86
2016-12-11T05:17:51.975Z,23.86
2016-12-11T05:18:20.178Z,23.84
2016-12-11T05:18:48.327Z,23.89
2016-12-11T05:19:16.586Z,23.84
2016-12-11T05:19:44.744Z,23.84
2016-12-11T05:20:12.913Z,23.79
2016-12-11T05:20:41.105Z,23.82
2016-12-11T05:21:09.281Z,23.82
2016-12-11T05:21:37.553Z,23.74
2016-12-11T05:22:05.705Z,23.84
2016-12-11T05:22:33.973Z,23.77
2016-12-11T05:23:02.143Z,23.77
2016-12-11T05:23:30.327Z,23.85
2016-12-11T05:23:58.519Z,23.88
2016-12-11T05:24:26.702Z,23.74
2016-12-11T05:24:54.997Z,23.81
2016-12-11T05:25:23.302Z,23.79
2016-12-11T05:25:51.545Z,23.82
2016-12-11T05:26:19.729Z,23.76
2016-12-11T05:26:47.868Z,23.81
2016-12-11T05:27:16.034Z,23.84
2016-12-11T05:27:44.190Z,23.7
2016-12-11T05:28:12.464Z,23.81
2016-12-11T05:28:40.593Z,23.82
2016-12-11T05:29:08.807Z,23.84
2016-12-11T05:29:36.954Z,23.82
2016-12-11T05:30:05.168Z,23.82
2016-12-11T05:30:33.325Z,23.71
2016-12-11T05:31:01.483Z,23.76
2016-12-11T05:31:29.655Z,23.82
2016-12-11T05:31:57.831Z,23.71
2016-12-11T05:32:26.071Z,23.74
2016-12-11T05:32:54.322Z,23.76
2016-12-11T05:33:22.501Z,23.84
2016-12-11T05:33:50.697Z,23.85
2016-12-11T05:34:18.960Z,23.84
2016-12-11T05:34:47.133Z,23.76
2016-12-11T05:35:15.420Z,23.77
2016-12-11T05:35:43.587Z,23.84
2016-12-11T05:36:11.762Z,23.76
2016-12-11T05:36:40.053Z,23.73
2016-12-11T05:37:08.201Z,23.76
2016-12-11T05:37:36.373Z,23.81
2016-12-11T05:38:04.565Z,23.81
2016-12-11T05:38:32.737Z,23.73
2016-12-11T05:39:00.904Z,23.76
2016-12-11T05:39:29.055Z,23.73
2016-12-11T05:39:57.234Z,23.7
2016-12-11T05:40:25.389Z,23.73
2016-12-11T05:40:53.538Z,23.73
2016-12-11T05:41:21.692Z,23.76
2016-12-11T05:41:49.844Z,23.7
2016-12-11T05:42:18.021Z,23.71
2016-12-11T05:42:46.217Z,23.71
2016-12-11T05:43:14.354Z,23.74
2016-12-11T05:43:42.558Z,23.76
2016-12-11T05:44:10.701Z,23.73
2016-12-11T05:44:38.859Z,23.76
2016-12-11T05:45:07.114Z,23.74
2016-12-11T05:45:35.276Z,23.74
2016-12-11T05:46:03.448Z,23.76
2016-12-11T05:46:31.639Z,23.74
2016-12-11T05:46:59.811Z,23.79
2016-12-11T05:47:27.985Z,23.76
2016-12-11T05:47:56.119Z,23.67
2016-12-11T05:48:24.256Z,23.76
2016-12-11T05:48:52.383Z,23.77
2016-12-11T05:49:20.555Z,23.79
2016-12-11T05:49:48.740Z,23.7
2016-12-11T05:50:16.906Z,23.74
2016-12-11T05:50:45.066Z,23.71
2016-12-11T05:51:13.323Z,23.74
2016-12-11T05:51:41.573Z,23.67
2016-12-11T05:52:09.715Z,23.71
2016-12-11T05:52:37.865Z,23.76
2016-12-11T05:53:06.043Z,23.73
2016-12-11T05:53:34.284Z,23.79
2016-12-11T05:54:02.478Z,23.76
2016-12-11T05:54:30.829Z,23.7
2016-12-11T05:54:58.975Z,23.74
2016-12-11T05:55:27.131Z,23.76
2016-12-11T05:55:55.340Z,23.71
2016-12-11T05:56:23.500Z,23.77
2016-12-11T05:56:51.673Z,23.73
2016-12-11T05:57:19.814Z,23.71
2016-12-11T05:57:47.997Z,23.76
2016-12-11T05:58:16.263Z,23.74
2016-12-11T05:58:44.401Z,23.74
2016-12-11T05:59:12.561Z,23.73
2016-12-11T05:59:40.714Z,23.76
2016-12-11T06:00:08.996Z,23.74
2016-12-11T06:00:37.375Z,23.7
2016-12-11T06:01:05.544Z,23.76
2016-12-11T06:01:33.698Z,23.73
2016-12-11T06:02:01.834Z,23.71
2016-12-11T06:02:30.025Z,23.71
2016-12-11T06:02:58.174Z,23.66
2016-12-11T06:03:26.328Z,23.69
2016-12-11T06:03:54.611Z,23.66